createdAt,value
2023-03-24T00:01:06.962Z,98871.38
2023-03-24T00:03:35.734Z,98861.53
2023-03-24T00:06:05.818Z,98855.16
2023-03-24T00:08:36.570Z,98843.47
2023-03-24T00:11:07.569Z,98846.16
2023-03-24T00:13:36.585Z,98851.84
2023-03-24T00:16:05.034Z,98850.44
2023-03-24T00:18:32.451Z,98848.81
2023-03-24T00:21:00.887Z,98850.41
2023-03-24T00:23:30.742Z,98848.44
2023-03-24T00:26:03.161Z,98847.69
2023-03-24T00:28:32.206Z,98838.97
2023-03-24T00:30:59.814Z,98837.88
2023-03-24T00:33:26.708Z,98840.59
2023-03-24T00:35:53.715Z,98837.38
2023-03-24T00:38:21.980Z,98816.16
2023-03-24T00:40:49.392Z,98815.63
2023-03-24T00:43:17.057Z,98810.22
2023-03-24T00:45:43.907Z,98808.59
2023-03-24T00:48:11.608Z,98791.00
2023-03-24T00:50:38.788Z,98796.50
2023-03-24T00:53:05.927Z,98795.16
2023-03-24T00:55:34.191Z,98787.56
2023-03-24T00:58:01.184Z,98789.78
2023-03-24T01:00:28.283Z,98779.47
2023-03-24T01:02:57.617Z,98771.31
2023-03-24T01:05:28.493Z,98759.41
2023-03-24T01:07:57.046Z,98758.38
2023-03-24T01:10:25.787Z,98750.50
2023-03-24T01:12:58.180Z,98749.19
2023-03-24T01:15:28.309Z,98746.19
2023-03-24T01:17:55.946Z,98743.22
2023-03-24T01:20:24.715Z,98739.94
2023-03-24T01:22:52.300Z,98739.97
2023-03-24T01:25:22.523Z,98732.94
2023-03-24T01:27:52.303Z,98742.19
2023-03-24T01:30:24.665Z,98720.09
2023-03-24T01:32:52.660Z,98718.41
2023-03-24T01:35:20.205Z,98721.13
2023-03-24T01:37:47.307Z,98715.97
2023-03-24T01:40:19.932Z,98715.69
2023-03-24T01:42:47.316Z,98722.53
2023-03-24T01:45:54.481Z,98724.47
2023-03-24T01:48:28.211Z,98725.31
2023-03-24T01:51:00.904Z,98726.09
2023-03-24T01:53:31.858Z,98721.69
2023-03-24T01:56:02.345Z,98716.47
2023-03-24T01:58:38.011Z,98711.03
2023-03-24T02:01:19.916Z,98709.06
2023-03-24T02:03:58.990Z,98704.94
2023-03-24T02:06:27.371Z,98698.34
2023-03-24T02:08:59.460Z,98693.75
2023-03-24T02:11:31.608Z,98696.47
2023-03-24T02:14:02.612Z,98702.72
2023-03-24T02:16:59.732Z,98702.34
2023-03-24T02:20:25.512Z,98703.25
2023-03-24T02:23:48.958Z,98691.06
2023-03-24T02:26:47.149Z,98686.16
2023-03-24T02:30:23.205Z,98671.91
2023-03-24T02:33:39.808Z,98675.38
2023-03-24T02:36:44.032Z,98682.69
2023-03-24T02:39:36.760Z,98689.16
2023-03-24T02:42:15.976Z,98676.03
2023-03-24T02:45:01.173Z,98675.78
2023-03-24T02:47:45.620Z,98679.91
2023-03-24T02:50:28.356Z,98679.91
2023-03-24T02:53:11.047Z,98675.56
2023-03-24T02:55:59.298Z,98663.84
2023-03-24T02:58:36.602Z,98668.16
2023-03-24T03:01:12.956Z,98669.47
2023-03-24T03:04:13.582Z,98671.31
2023-03-24T03:06:49.266Z,98669.13
2023-03-24T03:09:21.302Z,98665.56
2023-03-24T03:11:56.113Z,98663.91
2023-03-24T03:14:30.453Z,98671.00
2023-03-24T03:17:06.174Z,98660.16
2023-03-24T03:19:39.698Z,98654.25
2023-03-24T03:22:14.957Z,98650.53
2023-03-24T03:24:47.644Z,98637.03
2023-03-24T03:27:20.804Z,98623.50
2023-03-24T03:29:57.393Z,98625.28
2023-03-24T03:32:31.604Z,98626.41
2023-03-24T03:35:09.719Z,98635.38
2023-03-24T03:37:51.018Z,98637.25
2023-03-24T03:40:25.267Z,98623.69
2023-03-24T03:42:59.561Z,98623.16
2023-03-24T03:45:27.014Z,98618.50
2023-03-24T03:47:54.683Z,98615.00
2023-03-24T03:50:21.915Z,98626.69
2023-03-24T03:52:50.217Z,98622.09
2023-03-24T03:55:17.655Z,98629.69
2023-03-24T03:57:45.483Z,98631.34
2023-03-24T04:00:22.655Z,98640.03
2023-03-24T04:03:32.502Z,98646.81
2023-03-24T04:06:24.437Z,98642.22
2023-03-24T04:09:08.482Z,98647.38
2023-03-24T04:12:09.283Z,98657.19
2023-03-24T04:15:13.780Z,98652.03
2023-03-24T04:18:10.334Z,98675.38
2023-03-24T04:21:16.405Z,98667.25
2023-03-24T04:23:56.448Z,98670.22
2023-03-24T04:26:34.524Z,98677.03
2023-03-24T04:29:16.058Z,98664.81
2023-03-24T04:31:50.347Z,98671.91
2023-03-24T04:34:25.533Z,98662.13
2023-03-24T04:36:58.327Z,98671.91
2023-03-24T04:40:10.693Z,98659.97
2023-03-24T04:42:44.498Z,98658.09
2023-03-24T04:45:13.752Z,98658.41
2023-03-24T04:48:01.032Z,98672.53
2023-03-24T04:50:49.334Z,98678.53
2023-03-24T04:53:19.425Z,98695.66
2023-03-24T04:56:28.034Z,98709.56
2023-03-24T04:59:23.860Z,98721.22
2023-03-24T05:01:50.976Z,98733.44
2023-03-24T05:04:26.607Z,98750.84
2023-03-24T05:06:56.324Z,98756.53
2023-03-24T05:09:26.284Z,98758.16
2023-03-24T05:11:53.115Z,98764.19
2023-03-24T05:14:21.935Z,98780.78
2023-03-24T05:16:49.471Z,98796.84
2023-03-24T05:19:19.029Z,98816.69
2023-03-24T05:21:46.270Z,98822.38
2023-03-24T05:24:14.807Z,98821.28
2023-03-24T05:26:41.683Z,98814.75
2023-03-24T05:29:14.316Z,98814.16
2023-03-24T05:31:41.241Z,98816.63
2023-03-24T05:34:14.977Z,98820.28
2023-03-24T05:36:50.678Z,98805.03
2023-03-24T05:39:22.300Z,98803.72
2023-03-24T05:41:56.502Z,98807.53
2023-03-24T05:44:23.760Z,98800.38
2023-03-24T05:47:04.430Z,98808.63
2023-03-24T05:49:31.477Z,98801.19
2023-03-24T05:51:59.931Z,98805.91
2023-03-24T05:54:28.271Z,98804.28
2023-03-24T05:57:16.254Z,98809.91
2023-03-24T06:00:20.132Z,98798.44
2023-03-24T06:02:55.084Z,98801.66
2023-03-24T06:05:44.536Z,98798.16
2023-03-24T06:08:12.229Z,98798.09
2023-03-24T06:10:40.842Z,98796.09
2023-03-24T06:13:08.192Z,98808.56
2023-03-24T06:15:36.866Z,98798.63
2023-03-24T06:18:20.329Z,98796.88
2023-03-24T06:20:47.504Z,98795.69
2023-03-24T06:23:21.553Z,98787.47
2023-03-24T06:26:13.307Z,98786.72
2023-03-24T06:28:49.848Z,98787.53
2023-03-24T06:31:18.231Z,98786.56
2023-03-24T06:34:01.768Z,98783.75
2023-03-24T06:36:54.619Z,98788.59
2023-03-24T06:39:21.725Z,98786.53
2023-03-24T06:41:53.032Z,98795.25
2023-03-24T06:44:19.998Z,98791.41
2023-03-24T06:46:46.946Z,98785.91
2023-03-24T06:49:14.275Z,98782.66
2023-03-24T06:51:41.498Z,98797.84
2023-03-24T06:54:09.236Z,98794.53
2023-03-24T06:56:36.179Z,98793.25
2023-03-24T06:59:05.228Z,98794.00
2023-03-24T07:01:33.782Z,98794.50
2023-03-24T07:04:27.030Z,98798.84
2023-03-24T07:07:14.753Z,98789.88
2023-03-24T07:09:47.938Z,98799.72
2023-03-24T07:12:15.045Z,98804.25
2023-03-24T07:14:44.141Z,98802.63
2023-03-24T07:17:12.051Z,98808.94
2023-03-24T07:19:45.100Z,98811.72
2023-03-24T07:22:35.696Z,98815.81
2023-03-24T07:25:36.356Z,98807.75
2023-03-24T07:28:29.633Z,98832.97
2023-03-24T07:31:03.889Z,98834.88
2023-03-24T07:33:32.467Z,98824.53
2023-03-24T07:36:00.751Z,98833.22
2023-03-24T07:38:28.099Z,98835.50
2023-03-24T07:41:02.628Z,98834.00
2023-03-24T07:43:32.453Z,98843.75
2023-03-24T07:46:08.450Z,98835.25
2023-03-24T07:48:35.971Z,98831.19
2023-03-24T07:51:03.720Z,98838.28
2023-03-24T07:53:53.126Z,98838.28
2023-03-24T07:56:28.080Z,98844.34
2023-03-24T07:59:00.674Z,98847.56
2023-03-24T08:01:40.585Z,98838.03
2023-03-24T08:04:13.508Z,98836.34
2023-03-24T08:06:57.889Z,98835.69
2023-03-24T08:09:25.171Z,98839.47
2023-03-24T08:11:51.986Z,98820.75
2023-03-24T08:14:18.827Z,98832.41
2023-03-24T08:16:47.324Z,98820.81
2023-03-24T08:23:16.836Z,98796.41
2023-03-24T08:25:44.049Z,98768.53
2023-03-24T08:28:11.008Z,98729.16
2023-03-24T08:30:37.807Z,98730.31
2023-03-24T08:33:06.455Z,98770.31
2023-03-24T08:35:35.616Z,98786.91
2023-03-24T08:38:06.629Z,98788.34
2023-03-24T08:40:36.000Z,98790.59
2023-03-24T08:43:06.347Z,98787.63
2023-03-24T08:45:33.189Z,98803.41
2023-03-24T08:48:03.564Z,98812.38
2023-03-24T08:50:38.696Z,98805.88
2023-03-24T08:53:06.670Z,98810.78
2023-03-24T08:55:34.131Z,98811.03
2023-03-24T08:58:01.393Z,98814.84
2023-03-24T09:00:29.134Z,98820.56
2023-03-24T09:02:56.736Z,98821.19
2023-03-24T09:05:33.293Z,98826.91
2023-03-24T09:08:10.380Z,98835.44
2023-03-24T09:10:38.493Z,98826.47
2023-03-24T09:13:06.679Z,98818.88
2023-03-24T09:15:33.974Z,98815.91
2023-03-24T09:18:01.661Z,98819.19
2023-03-24T09:20:29.653Z,98830.09
2023-03-24T09:22:56.705Z,98837.16
2023-03-24T09:25:24.938Z,98824.44
2023-03-24T09:27:51.801Z,98819.66
2023-03-24T09:30:19.021Z,98828.38
2023-03-24T09:32:46.128Z,98814.28
2023-03-24T09:35:13.776Z,98825.13
2023-03-24T09:37:41.787Z,98822.16
2023-03-24T09:40:21.622Z,98831.97
2023-03-24T09:42:57.766Z,98828.50
2023-03-24T09:45:29.463Z,98833.72
2023-03-24T09:48:02.416Z,98827.53
2023-03-24T09:50:38.330Z,98816.66
2023-03-24T09:53:20.146Z,98821.00
2023-03-24T09:55:49.602Z,98816.66
2023-03-24T09:58:20.811Z,98809.03
2023-03-24T10:00:47.962Z,98818.34
2023-03-24T10:03:21.163Z,98816.78
2023-03-24T10:05:54.030Z,98831.78
2023-03-24T10:08:34.545Z,98813.38
2023-03-24T10:11:10.502Z,98818.09
2023-03-24T10:14:02.564Z,98820.59
2023-03-24T10:16:41.640Z,98825.28
2023-03-24T10:19:27.990Z,98822.44
2023-03-24T10:22:06.300Z,98818.38
2023-03-24T10:24:45.089Z,98819.56
2023-03-24T10:27:25.930Z,98822.72
2023-03-24T10:30:03.591Z,98815.94
2023-03-24T10:32:35.620Z,98811.59
2023-03-24T10:35:07.041Z,98814.06
2023-03-24T10:37:34.068Z,98815.66
2023-03-24T10:40:01.363Z,98806.13
2023-03-24T10:42:34.084Z,98804.78
2023-03-24T10:45:03.428Z,98809.97
2023-03-24T10:47:33.943Z,98821.69
2023-03-24T10:50:12.495Z,98816.25
2023-03-24T10:52:46.805Z,98807.81
2023-03-24T10:55:17.840Z,98814.91
2023-03-24T10:57:48.019Z,98817.38
2023-03-24T11:00:24.367Z,98824.72
2023-03-24T11:02:59.975Z,98823.34
2023-03-24T11:05:31.841Z,98823.94
2023-03-24T11:08:22.736Z,98843.28
2023-03-24T11:10:50.421Z,98828.84
2023-03-24T11:13:20.290Z,98836.75
2023-03-24T11:16:11.697Z,98828.91
2023-03-24T11:18:54.088Z,98828.09
2023-03-24T11:21:21.109Z,98828.41
2023-03-24T11:23:50.402Z,98838.44
2023-03-24T11:26:22.394Z,98839.28
2023-03-24T11:28:53.661Z,98839.25
2023-03-24T11:31:27.658Z,98835.94
2023-03-24T11:34:00.333Z,98852.28
2023-03-24T11:36:56.416Z,98838.00
2023-03-24T11:39:26.477Z,98836.94
2023-03-24T11:42:03.767Z,98844.34
2023-03-24T11:44:44.100Z,98839.72
2023-03-24T11:47:20.890Z,98837.56
2023-03-24T11:50:01.121Z,98849.59
2023-03-24T11:52:34.829Z,98848.78
2023-03-24T11:55:29.484Z,98851.25
2023-03-24T11:58:02.217Z,98852.34
2023-03-24T12:00:37.117Z,98857.25
2023-03-24T12:03:58.813Z,98850.16
2023-03-24T12:06:41.783Z,98847.97
2023-03-24T12:09:22.007Z,98852.38
2023-03-24T12:12:22.734Z,98854.59
2023-03-24T12:15:28.789Z,98851.03
2023-03-24T12:18:23.909Z,98863.03
2023-03-24T12:21:02.237Z,98870.41
2023-03-24T12:23:45.163Z,98854.84
2023-03-24T12:26:23.684Z,98861.88
2023-03-24T12:29:16.126Z,98866.84
2023-03-24T12:32:19.358Z,98880.75
2023-03-24T12:35:28.822Z,98859.75
2023-03-24T12:38:18.255Z,98900.09
2023-03-24T12:41:13.232Z,98921.09
2023-03-24T12:43:57.735Z,98931.53
2023-03-24T12:46:47.786Z,98941.16
2023-03-24T12:49:41.398Z,98942.69
2023-03-24T12:52:38.471Z,98953.75
2023-03-24T12:55:12.022Z,98948.53
2023-03-24T12:57:48.866Z,98955.22
2023-03-24T13:00:24.597Z,98943.97
2023-03-24T13:02:58.962Z,98948.50
2023-03-24T13:05:31.854Z,98943.00
2023-03-24T13:08:03.767Z,98939.66
2023-03-24T13:10:36.614Z,98939.72
2023-03-24T13:13:18.255Z,98932.66
2023-03-24T13:15:50.907Z,98934.56
2023-03-24T13:18:32.846Z,98930.81
2023-03-24T13:21:06.488Z,98929.13
2023-03-24T13:23:51.835Z,98926.78
2023-03-24T13:26:37.647Z,98936.25
2023-03-24T13:29:20.802Z,98930.13
2023-03-24T13:31:59.709Z,98944.69
2023-03-24T13:34:34.773Z,98929.22
2023-03-24T13:37:10.825Z,98938.19
2023-03-24T13:39:39.364Z,98944.09
2023-03-24T13:42:06.611Z,98943.69
2023-03-24T13:44:41.969Z,98943.69
2023-03-24T13:47:14.823Z,98956.25
2023-03-24T13:49:55.701Z,98949.19
2023-03-24T13:52:32.861Z,98944.34
2023-03-24T13:55:07.949Z,98939.31
2023-03-24T13:57:41.842Z,98938.44
2023-03-24T14:00:22.678Z,98948.06
2023-03-24T14:02:50.906Z,98942.03
2023-03-24T14:05:40.430Z,98948.31
2023-03-24T14:08:16.989Z,98943.91
2023-03-24T14:10:49.583Z,98936.59
2023-03-24T14:13:34.918Z,98934.06
2023-03-24T14:16:41.034Z,98939.44
2023-03-24T14:19:19.434Z,98919.22
2023-03-24T14:21:54.780Z,98932.00
2023-03-24T14:24:26.928Z,98931.25
2023-03-24T14:26:54.123Z,98928.09
2023-03-24T14:29:40.079Z,98942.78
2023-03-24T14:32:20.545Z,98944.94
2023-03-24T14:34:55.292Z,98944.16
2023-03-24T14:37:24.581Z,98936.50
2023-03-24T14:40:03.978Z,98946.75
2023-03-24T14:43:22.655Z,98936.16
2023-03-24T14:46:01.598Z,98930.16
2023-03-24T14:48:37.811Z,98925.84
2023-03-24T14:51:24.209Z,98931.22
2023-03-24T14:53:57.371Z,98932.56
2023-03-24T14:56:32.056Z,98922.34
2023-03-24T14:59:08.219Z,98912.59
2023-03-24T15:01:36.221Z,98906.66
2023-03-24T15:04:40.069Z,98906.41
2023-03-24T15:07:18.398Z,98920.41
2023-03-24T15:09:50.985Z,98917.25
2023-03-24T15:12:21.942Z,98918.47
2023-03-24T15:14:51.449Z,98909.13
2023-03-24T15:17:26.448Z,98904.06
2023-03-24T15:19:55.233Z,98907.75
2023-03-24T15:22:22.526Z,98897.38
2023-03-24T15:24:51.273Z,98902.91
2023-03-24T15:27:25.154Z,98904.84
2023-03-24T15:29:59.345Z,98898.28
2023-03-24T15:32:29.025Z,98887.47
2023-03-24T15:35:00.571Z,98894.13
2023-03-24T15:37:34.220Z,98879.34
2023-03-24T15:40:15.398Z,98876.75
2023-03-24T15:42:45.137Z,98872.72
2023-03-24T15:45:23.986Z,98869.41
2023-03-24T15:47:53.813Z,98876.38
2023-03-24T15:50:35.788Z,98876.47
2023-03-24T15:53:06.100Z,98875.00
2023-03-24T15:55:36.028Z,98875.00
2023-03-24T15:58:24.390Z,98885.91
2023-03-24T16:00:55.040Z,98878.25
2023-03-24T16:03:24.316Z,98880.41
2023-03-24T16:05:54.985Z,98873.84
2023-03-24T16:08:29.523Z,98876.06
2023-03-24T16:10:59.767Z,98878.00
2023-03-24T16:13:28.231Z,98876.66
2023-03-24T16:15:58.072Z,98878.00
2023-03-24T16:18:30.552Z,98880.78
2023-03-24T16:20:59.423Z,98875.41
2023-03-24T16:23:28.116Z,98878.13
2023-03-24T16:25:54.966Z,98881.88
2023-03-24T16:28:22.934Z,98876.06
2023-03-24T16:30:58.125Z,98875.28
2023-03-24T16:33:25.033Z,98868.03
2023-03-24T16:35:51.899Z,98872.25
2023-03-24T16:38:20.392Z,98877.28
2023-03-24T16:40:58.049Z,98887.25
2023-03-24T16:43:24.971Z,98883.69
2023-03-24T16:45:52.003Z,98878.69
2023-03-24T16:48:18.913Z,98882.75
2023-03-24T16:50:50.564Z,98880.69
2023-03-24T16:53:19.505Z,98881.22
2023-03-24T16:55:46.703Z,98885.88
2023-03-24T16:58:16.803Z,98888.91
2023-03-24T17:00:45.180Z,98885.03
2023-03-24T17:03:12.894Z,98893.44
2023-03-24T17:05:44.172Z,98895.06
2023-03-24T17:08:11.001Z,98896.19
2023-03-24T17:10:42.175Z,98896.69
2023-03-24T17:13:16.996Z,98887.88
2023-03-24T17:15:44.209Z,98889.69
2023-03-24T17:18:11.189Z,98884.78
2023-03-24T17:20:38.002Z,98880.19
2023-03-24T17:23:06.188Z,98882.63
2023-03-24T17:25:33.691Z,98884.72
2023-03-24T17:28:03.144Z,98893.13
2023-03-24T17:30:30.315Z,98891.22
2023-03-24T17:32:57.282Z,98891.22
2023-03-24T17:35:24.868Z,98899.88
2023-03-24T17:37:51.810Z,98900.41
2023-03-24T17:40:20.621Z,98893.59
2023-03-24T17:42:47.753Z,98902.50
2023-03-24T17:45:18.568Z,98904.53
2023-03-24T17:47:46.377Z,98909.69
2023-03-24T17:50:14.084Z,98908.81
2023-03-24T17:52:46.345Z,98908.53
2023-03-24T17:55:16.173Z,98914.22
2023-03-24T17:57:44.409Z,98915.91
2023-03-24T18:00:14.248Z,98916.50
2023-03-24T18:02:43.711Z,98924.97
2023-03-24T18:05:12.457Z,98922.66
2023-03-24T18:07:40.533Z,98928.16
2023-03-24T18:10:09.388Z,98921.00
2023-03-24T18:12:36.183Z,98927.41
2023-03-24T18:15:05.480Z,98930.22
2023-03-24T18:17:32.378Z,98930.75
2023-03-24T18:20:00.634Z,98930.75
2023-03-24T18:22:27.965Z,98942.91
2023-03-24T18:24:54.993Z,98946.47
2023-03-24T18:27:21.825Z,98930.75
2023-03-24T18:29:48.678Z,98944.97
2023-03-24T18:32:15.848Z,98944.22
2023-03-24T18:34:44.149Z,98940.00
2023-03-24T18:37:12.833Z,98955.81
2023-03-24T18:39:39.735Z,98955.81
2023-03-24T18:42:07.212Z,98953.94
2023-03-24T18:44:34.131Z,98958.72
2023-03-24T18:47:01.259Z,98952.69
2023-03-24T18:49:29.277Z,98953.03
2023-03-24T18:51:56.013Z,98958.16
2023-03-24T18:54:24.604Z,98953.72
2023-03-24T18:56:51.549Z,98962.44
2023-03-24T18:59:18.405Z,98964.56
2023-03-24T19:01:45.509Z,98965.63
2023-03-24T19:04:12.432Z,98962.81
2023-03-24T19:06:39.576Z,98959.75
2023-03-24T19:09:06.345Z,98966.00
2023-03-24T19:11:34.717Z,98972.56
2023-03-24T19:14:02.016Z,98972.50
2023-03-24T19:16:29.157Z,98978.28
2023-03-24T19:18:56.227Z,98979.72
2023-03-24T19:21:25.357Z,98975.88
2023-03-24T19:23:53.151Z,98980.13
2023-03-24T19:26:20.348Z,98979.06
2023-03-24T19:28:48.491Z,98966.34
2023-03-24T19:31:18.612Z,98976.00
2023-03-24T19:33:47.180Z,98976.00
2023-03-24T19:36:15.780Z,98977.78
2023-03-24T19:38:42.705Z,98979.88
2023-03-24T19:41:13.644Z,98986.63
2023-03-24T19:43:41.267Z,98988.25
2023-03-24T19:46:09.525Z,98986.03
2023-03-24T19:48:36.587Z,98981.56
2023-03-24T19:51:04.386Z,98982.16
2023-03-24T19:53:31.731Z,98979.22
2023-03-24T19:55:59.618Z,98985.47
2023-03-24T19:58:26.571Z,98977.47
2023-03-24T20:00:53.631Z,98977.34
2023-03-24T20:03:22.469Z,98978.41
2023-03-24T20:05:50.043Z,98977.34
2023-03-24T20:08:17.671Z,98985.38
2023-03-24T20:10:44.680Z,98994.78
2023-03-24T20:13:11.475Z,98994.63
2023-03-24T20:15:38.301Z,98994.41
2023-03-24T20:18:05.446Z,98995.09
2023-03-24T20:20:33.802Z,98991.25
2023-03-24T20:23:00.909Z,98987.94
2023-03-24T20:25:27.970Z,98987.56
2023-03-24T20:27:54.920Z,98984.78
2023-03-24T20:30:22.476Z,98981.34
2023-03-24T20:32:49.413Z,98975.94
2023-03-24T20:35:16.664Z,98979.47
2023-03-24T20:37:44.995Z,98985.97
2023-03-24T20:40:13.469Z,98978.09
2023-03-24T20:42:40.445Z,98977.94
2023-03-24T20:45:10.312Z,98984.19
2023-03-24T20:47:37.330Z,98978.56
2023-03-24T20:50:05.849Z,98976.31
2023-03-24T20:52:32.963Z,98978.44
2023-03-24T20:55:01.706Z,98975.03
2023-03-24T20:57:28.632Z,98974.31
2023-03-24T20:59:55.408Z,98980.91
2023-03-24T21:02:23.202Z,98976.78
2023-03-24T21:04:50.126Z,98980.91
2023-03-24T21:07:17.624Z,98992.41
2023-03-24T21:09:44.459Z,98989.94
2023-03-24T21:12:12.616Z,99002.28
2023-03-24T21:14:39.407Z,98998.50
2023-03-24T21:17:06.693Z,99003.47
2023-03-24T21:19:34.259Z,99006.03
2023-03-24T21:22:01.063Z,98998.28
2023-03-24T21:24:28.169Z,99005.41
2023-03-24T21:26:54.944Z,99008.34
2023-03-24T21:29:23.274Z,99007.09
2023-03-24T21:31:50.163Z,99017.19
2023-03-24T21:34:17.310Z,99015.66
2023-03-24T21:36:44.190Z,99015.06
2023-03-24T21:39:11.020Z,99021.53
2023-03-24T21:41:37.762Z,99019.53
2023-03-24T21:44:06.071Z,99031.19
2023-03-24T21:46:34.287Z,99035.06
2023-03-24T21:49:01.416Z,99039.44
2023-03-24T21:51:30.838Z,99036.94
2023-03-24T21:53:57.703Z,99028.94
2023-03-24T21:56:25.176Z,99044.22
2023-03-24T21:58:53.494Z,99047.03
2023-03-24T22:01:20.703Z,99045.25
2023-03-24T22:03:49.286Z,99049.63
2023-03-24T22:06:16.519Z,99048.22
2023-03-24T22:08:44.365Z,99043.84
2023-03-24T22:11:11.726Z,99034.03
2023-03-24T22:13:39.394Z,99032.81
2023-03-24T22:16:08.086Z,99029.09
2023-03-24T22:18:35.324Z,99032.94
2023-03-24T22:21:07.093Z,99024.09
2023-03-24T22:23:37.585Z,99023.97
2023-03-24T22:26:09.681Z,99031.50
2023-03-24T22:28:38.176Z,99029.25
2023-03-24T22:31:08.262Z,99034.19
2023-03-24T22:33:35.999Z,99039.72
2023-03-24T22:36:06.650Z,99047.16
2023-03-24T22:38:34.018Z,99045.84
2023-03-24T22:41:04.254Z,99053.50
2023-03-24T22:43:32.255Z,99052.66
2023-03-24T22:45:59.265Z,99042.69
2023-03-24T22:48:26.012Z,99054.56
2023-03-24T22:50:53.424Z,99046.91
2023-03-24T22:53:21.553Z,99055.03
2023-03-24T22:55:48.699Z,99046.09
2023-03-24T22:58:16.079Z,99057.72
2023-03-24T23:00:45.389Z,99063.25
2023-03-24T23:03:12.511Z,99070.84
2023-03-24T23:05:40.618Z,99091.13
2023-03-24T23:08:08.482Z,99110.06
2023-03-24T23:10:36.816Z,99126.88
2023-03-24T23:13:04.004Z,99123.03
2023-03-24T23:15:31.500Z,99104.03
2023-03-24T23:17:58.570Z,99110.97
2023-03-24T23:20:26.233Z,99127.59
2023-03-24T23:22:53.119Z,99120.47
2023-03-24T23:25:20.125Z,99103.88
2023-03-24T23:27:48.519Z,99080.78
2023-03-24T23:30:16.148Z,99084.84
2023-03-24T23:32:43.449Z,99096.41
2023-03-24T23:35:11.377Z,99113.66
2023-03-24T23:37:39.031Z,99117.75
2023-03-24T23:40:09.916Z,99115.16
2023-03-24T23:42:37.257Z,99129.41
2023-03-24T23:45:06.977Z,99120.56
2023-03-24T23:47:35.235Z,99133.94
2023-03-24T23:50:03.426Z,99144.72
2023-03-24T23:52:30.328Z,99142.00
2023-03-24T23:54:57.157Z,99142.75
2023-03-24T23:57:24.569Z,99147.94
2023-03-24T23:59:51.627Z,99139.56
